createdAt,value
2022-11-28T00:01:39.490Z,2.93
2022-11-28T00:04:09.137Z,2.73
2022-11-28T00:06:38.918Z,2.87
2022-11-28T00:09:09.634Z,2.77
2022-11-28T00:11:40.041Z,3.10
2022-11-28T00:14:08.881Z,2.93
2022-11-28T00:16:37.583Z,2.77
2022-11-28T00:19:06.542Z,2.60
2022-11-28T00:21:35.408Z,2.93
2022-11-28T00:24:03.824Z,2.60
2022-11-28T00:26:36.242Z,2.53
2022-11-28T00:29:05.541Z,2.90
2022-11-28T00:31:42.384Z,2.90
2022-11-28T00:34:12.516Z,2.80
2022-11-28T00:36:41.052Z,2.50
2022-11-28T00:39:09.291Z,2.70
2022-11-28T00:41:39.063Z,2.60
2022-11-28T00:44:07.610Z,2.40
2022-11-28T00:46:36.005Z,2.40
2022-11-28T00:49:04.416Z,2.50
2022-11-28T00:51:34.139Z,2.13
2022-11-28T00:54:04.337Z,2.50
2022-11-28T00:56:36.129Z,2.43
2022-11-28T00:59:06.085Z,2.57
2022-11-28T01:01:36.307Z,2.77
2022-11-28T01:04:08.031Z,2.27
2022-11-28T01:06:38.227Z,3.10
2022-11-28T01:09:09.325Z,4.10
2022-11-28T01:11:39.640Z,3.70
2022-11-28T01:14:10.369Z,3.40
2022-11-28T01:16:38.804Z,2.70
2022-11-28T01:19:07.908Z,2.97
2022-11-28T01:21:36.740Z,2.80
2022-11-28T01:24:07.146Z,3.03
2022-11-28T01:26:35.555Z,2.87
2022-11-28T01:29:03.916Z,2.80
2022-11-28T01:31:33.981Z,2.70
2022-11-28T01:34:02.415Z,2.83
2022-11-28T01:36:31.095Z,2.50
2022-11-28T01:38:59.676Z,2.53
2022-11-28T01:41:29.892Z,2.67
2022-11-28T01:44:04.715Z,2.40
2022-11-28T01:46:35.837Z,2.43
2022-11-28T01:49:10.184Z,2.40
2022-11-28T01:51:39.973Z,2.30
2022-11-28T01:54:08.543Z,2.13
2022-11-28T01:56:43.794Z,2.30
2022-11-28T01:59:15.293Z,2.20
2022-11-28T02:01:46.620Z,2.40
2022-11-28T02:04:15.784Z,2.27
2022-11-28T02:06:44.451Z,2.17
2022-11-28T02:09:14.810Z,1.93
2022-11-28T02:12:21.513Z,2.30
2022-11-28T02:15:11.476Z,2.30
2022-11-28T02:17:49.976Z,3.00
2022-11-28T02:20:54.012Z,2.97
2022-11-28T02:23:29.921Z,3.23
2022-11-28T02:26:27.293Z,2.23
2022-11-28T02:29:30.961Z,2.10
2022-11-28T02:32:16.580Z,1.73
2022-11-28T02:34:52.303Z,1.80
2022-11-28T02:37:28.488Z,1.90
2022-11-28T02:40:08.467Z,1.70
2022-11-28T02:42:49.038Z,1.80
2022-11-28T02:45:25.383Z,1.70
2022-11-28T02:48:00.225Z,1.83
2022-11-28T02:50:32.648Z,1.80
2022-11-28T02:53:06.394Z,1.80
2022-11-28T02:55:37.992Z,1.80
2022-11-28T02:58:06.329Z,1.70
2022-11-28T03:00:36.598Z,1.73
2022-11-28T03:03:30.687Z,1.60
2022-11-28T03:06:03.207Z,1.83
2022-11-28T03:08:44.819Z,1.70
2022-11-28T03:11:21.402Z,1.57
2022-11-28T03:13:58.640Z,1.60
2022-11-28T03:16:31.550Z,1.80
2022-11-28T03:19:11.362Z,1.63
2022-11-28T03:21:44.918Z,1.50
2022-11-28T03:24:19.152Z,1.70
2022-11-28T03:26:55.383Z,1.67
2022-11-28T03:29:32.953Z,1.77
2022-11-28T03:32:06.670Z,1.50
2022-11-28T03:34:40.773Z,1.80
2022-11-28T03:37:14.464Z,1.37
2022-11-28T03:39:48.992Z,1.60
2022-11-28T03:42:21.807Z,1.40
2022-11-28T03:44:54.837Z,1.50
2022-11-28T03:47:24.992Z,1.50
2022-11-28T03:49:58.440Z,1.17
2022-11-28T03:52:30.671Z,1.40
2022-11-28T03:55:03.838Z,1.20
2022-11-28T03:57:35.955Z,1.27
2022-11-28T04:00:08.678Z,1.50
2022-11-28T04:02:41.213Z,1.20
2022-11-28T04:05:20.019Z,1.50
2022-11-28T04:07:53.585Z,1.57
2022-11-28T04:10:23.466Z,1.70
2022-11-28T04:12:57.950Z,1.60
2022-11-28T04:15:34.521Z,1.73
2022-11-28T04:18:14.369Z,1.80
2022-11-28T04:20:51.416Z,1.97
2022-11-28T04:23:22.104Z,2.03
2022-11-28T04:25:56.121Z,1.90
2022-11-28T04:28:28.449Z,1.90
2022-11-28T04:31:00.026Z,1.80
2022-11-28T04:33:31.657Z,1.70
2022-11-28T04:36:02.891Z,1.80
2022-11-28T04:38:32.437Z,1.70
2022-11-28T04:41:07.991Z,1.70
2022-11-28T04:43:41.020Z,1.93
2022-11-28T04:46:14.513Z,1.90
2022-11-28T04:48:43.223Z,1.80
2022-11-28T04:51:20.579Z,2.20
2022-11-28T04:53:53.561Z,1.93
2022-11-28T04:56:28.919Z,1.80
2022-11-28T04:58:57.843Z,1.80
2022-11-28T05:01:30.845Z,1.70
2022-11-28T05:03:59.398Z,1.80
2022-11-28T05:06:31.581Z,1.60
2022-11-28T05:09:00.018Z,1.80
2022-11-28T05:11:28.991Z,1.70
2022-11-28T05:13:57.453Z,1.80
2022-11-28T05:16:25.799Z,2.40
2022-11-28T05:18:54.138Z,2.40
2022-11-28T05:21:22.639Z,1.97
2022-11-28T05:23:52.352Z,2.20
2022-11-28T05:26:22.542Z,1.90
2022-11-28T05:28:52.324Z,2.23
2022-11-28T05:31:22.057Z,3.60
2022-11-28T05:33:50.475Z,3.83
2022-11-28T05:36:19.652Z,3.57
2022-11-28T05:38:48.339Z,3.50
2022-11-28T05:41:23.308Z,2.70
2022-11-28T05:43:51.670Z,2.60
2022-11-28T05:46:20.619Z,2.73
2022-11-28T05:48:49.054Z,2.63
2022-11-28T05:51:17.623Z,3.27
2022-11-28T05:53:45.943Z,4.93
2022-11-28T05:56:16.488Z,6.10
2022-11-28T05:58:46.747Z,4.80
2022-11-28T06:01:17.130Z,3.87
2022-11-28T06:03:46.044Z,3.10
2022-11-28T06:06:16.919Z,2.70
2022-11-28T06:08:46.200Z,2.70
2022-11-28T06:11:15.260Z,2.40
2022-11-28T06:13:46.144Z,2.40
2022-11-28T06:16:17.067Z,1.97
2022-11-28T06:18:45.972Z,2.23
2022-11-28T06:21:15.998Z,2.13
2022-11-28T06:23:44.252Z,2.07
2022-11-28T06:26:15.675Z,2.03
2022-11-28T06:28:45.776Z,2.10
2022-11-28T06:31:14.876Z,2.30
2022-11-28T06:33:43.669Z,2.23
2022-11-28T06:36:13.160Z,2.20
2022-11-28T06:38:41.760Z,2.37
2022-11-28T06:41:11.904Z,3.57
2022-11-28T06:43:40.486Z,4.83
2022-11-28T06:46:16.531Z,6.20
2022-11-28T06:48:45.438Z,6.47
2022-11-28T06:51:13.827Z,5.60
2022-11-28T06:53:42.389Z,4.50
2022-11-28T06:56:14.053Z,3.80
2022-11-28T06:58:43.356Z,4.00
2022-11-28T07:01:16.055Z,4.43
2022-11-28T07:03:44.975Z,4.87
2022-11-28T07:06:14.329Z,3.90
2022-11-28T07:08:42.957Z,2.77
2022-11-28T07:11:13.945Z,2.97
2022-11-28T07:13:43.152Z,3.73
2022-11-28T07:16:17.439Z,4.27
2022-11-28T07:18:46.092Z,4.10
2022-11-28T07:21:15.203Z,3.43
2022-11-28T07:23:44.332Z,3.50
2022-11-28T07:26:14.346Z,3.73
2022-11-28T07:28:43.286Z,3.70
2022-11-28T07:31:13.856Z,3.60
2022-11-28T07:33:45.251Z,4.20
2022-11-28T07:36:16.408Z,4.10
2022-11-28T07:38:47.255Z,4.37
2022-11-28T07:41:16.154Z,5.43
2022-11-28T07:43:45.907Z,4.93
2022-11-28T07:46:16.164Z,5.00
2022-11-28T07:48:46.074Z,4.87
2022-11-28T07:51:16.216Z,4.90
2022-11-28T07:53:45.084Z,5.23
2022-11-28T07:56:16.768Z,5.60
2022-11-28T07:58:47.069Z,6.30
2022-11-28T08:01:18.100Z,6.10
2022-11-28T08:03:48.862Z,5.60
2022-11-28T08:06:18.452Z,5.47
2022-11-28T08:08:48.453Z,5.43
2022-11-28T08:11:18.290Z,6.77
2022-11-28T08:13:47.138Z,10.57
2022-11-28T08:16:18.222Z,11.83
2022-11-28T08:18:48.515Z,13.50
2022-11-28T08:21:18.969Z,13.07
2022-11-28T08:23:47.365Z,11.23
2022-11-28T08:26:17.503Z,10.87
2022-11-28T08:28:46.268Z,13.37
2022-11-28T08:31:17.471Z,15.27
2022-11-28T08:33:48.454Z,15.07
2022-11-28T08:36:19.314Z,13.30
2022-11-28T08:39:03.427Z,11.93
2022-11-28T08:41:37.160Z,12.17
2022-11-28T08:44:05.800Z,13.90
2022-11-28T08:46:34.490Z,65.30
2022-11-28T08:49:04.869Z,25.13
2022-11-28T08:51:33.719Z,11.93
2022-11-28T08:54:02.149Z,7.20
2022-11-28T08:56:30.391Z,6.40
2022-11-28T08:58:59.049Z,6.53
2022-11-28T09:01:28.543Z,6.60
2022-11-28T09:03:57.486Z,6.47
2022-11-28T09:06:27.306Z,6.40
2022-11-28T09:08:55.665Z,6.87
2022-11-28T09:11:24.845Z,7.60
2022-11-28T09:13:53.428Z,10.60
2022-11-28T09:16:21.794Z,12.50
2022-11-28T09:18:51.323Z,13.37
2022-11-28T09:21:19.720Z,14.80
2022-11-28T09:23:49.715Z,15.43
2022-11-28T09:26:20.514Z,16.47
2022-11-28T09:28:49.354Z,19.33
2022-11-28T09:31:19.030Z,19.13
2022-11-28T09:33:48.419Z,19.20
2022-11-28T09:36:19.224Z,16.70
2022-11-28T09:38:49.502Z,14.33
2022-11-28T09:41:47.822Z,15.77
2022-11-28T09:44:21.090Z,18.53
2022-11-28T09:46:51.123Z,45.53
2022-11-28T09:49:35.326Z,46.60
2022-11-28T09:52:16.772Z,34.83
2022-11-28T09:54:52.906Z,24.60
2022-11-28T09:57:31.141Z,15.80
2022-11-28T09:59:59.607Z,14.67
2022-11-28T10:02:34.920Z,14.57
2022-11-28T10:05:12.662Z,14.30
2022-11-28T10:07:55.195Z,11.33
2022-11-28T10:10:35.146Z,10.60
2022-11-28T10:13:10.927Z,13.10
2022-11-28T10:15:49.250Z,26.07
2022-11-28T10:18:36.695Z,76.37
2022-11-28T10:21:16.560Z,163.23
2022-11-28T10:23:46.938Z,180.07
2022-11-28T10:26:30.159Z,152.33
2022-11-28T10:29:01.201Z,116.03
2022-11-28T10:31:34.827Z,92.40
2022-11-28T10:34:08.748Z,73.90
2022-11-28T10:36:51.475Z,60.97
2022-11-28T10:39:19.796Z,49.50
2022-11-28T10:42:12.552Z,44.03
2022-11-28T10:44:51.934Z,35.53
2022-11-28T10:47:36.182Z,26.97
2022-11-28T10:50:08.237Z,23.73
2022-11-28T10:52:46.090Z,22.90
2022-11-28T10:55:27.715Z,22.87
2022-11-28T10:58:06.183Z,22.30
2022-11-28T11:00:36.613Z,24.67
2022-11-28T11:03:05.982Z,44.17
2022-11-28T11:05:36.347Z,59.43
2022-11-28T11:08:12.916Z,43.17
2022-11-28T11:10:46.389Z,34.43
2022-11-28T11:13:19.323Z,29.07
2022-11-28T11:15:50.420Z,28.17
2022-11-28T11:18:26.036Z,25.23
2022-11-28T11:21:09.285Z,22.47
2022-11-28T11:23:38.586Z,20.03
2022-11-28T11:26:10.495Z,20.87
2022-11-28T11:28:45.141Z,20.67
2022-11-28T11:31:20.909Z,18.30
2022-11-28T11:33:53.185Z,17.83
2022-11-28T11:36:30.275Z,15.73
2022-11-28T11:39:20.313Z,14.37
2022-11-28T11:41:50.839Z,13.63
2022-11-28T11:44:29.827Z,12.77
2022-11-28T11:47:00.847Z,10.83
2022-11-28T11:49:31.139Z,9.77
2022-11-28T11:52:00.640Z,9.10
2022-11-28T11:54:29.046Z,8.23
2022-11-28T11:57:25.099Z,8.93
2022-11-28T11:59:53.220Z,8.53
2022-11-28T12:02:27.581Z,9.23
2022-11-28T12:05:02.361Z,8.37
2022-11-28T12:07:37.567Z,8.60
2022-11-28T12:10:11.149Z,7.20
2022-11-28T12:12:42.113Z,7.10
2022-11-28T12:15:19.447Z,6.73
2022-11-28T12:18:03.333Z,6.07
2022-11-28T12:20:44.198Z,6.37
2022-11-28T12:23:32.613Z,6.13
2022-11-28T12:26:07.941Z,5.73
2022-11-28T12:28:50.634Z,6.13
2022-11-28T12:31:29.558Z,6.33
2022-11-28T12:34:07.156Z,7.00
2022-11-28T12:36:42.717Z,6.93
2022-11-28T12:39:19.317Z,6.57
2022-11-28T12:42:17.776Z,6.63
2022-11-28T12:45:06.128Z,6.27
2022-11-28T12:47:45.220Z,6.90
2022-11-28T12:50:27.336Z,7.13
2022-11-28T12:53:05.108Z,7.33
2022-11-28T12:55:42.049Z,7.67
2022-11-28T12:58:18.783Z,8.57
2022-11-28T13:00:56.632Z,9.43
2022-11-28T13:03:41.142Z,12.30
2022-11-28T13:06:25.887Z,12.00
2022-11-28T13:09:15.270Z,15.37
2022-11-28T13:11:56.378Z,25.47
2022-11-28T13:14:33.132Z,21.10
2022-11-28T13:17:14.805Z,15.77
2022-11-28T13:19:52.009Z,13.13
2022-11-28T13:22:24.789Z,13.20
2022-11-28T13:25:01.857Z,14.60
2022-11-28T13:27:38.890Z,18.37
2022-11-28T13:30:19.678Z,21.53
2022-11-28T13:32:52.647Z,23.97
2022-11-28T13:35:22.878Z,19.87
2022-11-28T13:40:53.049Z,14.20
2022-11-28T13:43:33.069Z,14.27
2022-11-28T13:46:01.813Z,14.03
2022-11-28T13:51:43.651Z,12.57
2022-11-28T13:54:45.825Z,11.37
2022-11-28T13:57:30.243Z,11.57
2022-11-28T14:00:05.998Z,11.53
2022-11-28T14:02:43.648Z,12.27
2022-11-28T14:05:31.798Z,12.63
2022-11-28T14:08:02.212Z,13.30
2022-11-28T14:10:41.195Z,14.20
2022-11-28T14:13:44.873Z,14.50
2022-11-28T14:16:27.548Z,14.47
2022-11-28T14:19:07.141Z,13.47
2022-11-28T14:21:50.946Z,13.40
2022-11-28T14:24:28.564Z,12.67
2022-11-28T14:27:01.777Z,13.03
2022-11-28T14:29:35.570Z,13.10
2022-11-28T14:32:28.864Z,13.23
2022-11-28T14:34:52.761Z,14.43
2022-11-28T14:37:57.879Z,15.07
2022-11-28T14:41:05.386Z,16.63
2022-11-28T14:43:36.290Z,14.90
2022-11-28T14:46:23.693Z,14.87
2022-11-28T14:49:18.813Z,17.90
2022-11-28T14:52:30.705Z,20.70
2022-11-28T14:54:56.213Z,18.90
2022-11-28T14:57:32.757Z,17.47
2022-11-28T15:00:08.093Z,17.33
2022-11-28T15:02:55.850Z,19.40
2022-11-28T15:05:45.521Z,26.07
2022-11-28T15:08:54.834Z,27.17
2022-11-28T15:11:44.024Z,28.90
2022-11-28T15:14:21.080Z,29.37
2022-11-28T15:16:51.343Z,28.93
2022-11-28T15:19:26.666Z,26.30
2022-11-28T15:21:56.349Z,26.93
2022-11-28T15:24:27.391Z,30.47
2022-11-28T15:26:57.986Z,33.50
2022-11-28T15:29:29.700Z,33.87
2022-11-28T15:31:59.888Z,34.40
2022-11-28T15:34:31.045Z,34.83
2022-11-28T15:37:01.111Z,37.20
2022-11-28T15:39:35.239Z,38.03
2022-11-28T15:42:06.076Z,37.40
2022-11-28T15:44:37.789Z,27.83
2022-11-28T15:47:06.718Z,27.67
2022-11-28T15:49:40.693Z,29.57
2022-11-28T15:52:09.051Z,29.93
2022-11-28T15:54:43.227Z,26.83
2022-11-28T15:57:20.940Z,26.10
2022-11-28T15:59:50.839Z,25.47
2022-11-28T16:02:24.015Z,36.80
2022-11-28T16:04:58.318Z,29.20
2022-11-28T16:07:26.725Z,25.80
2022-11-28T16:10:00.655Z,26.73
2022-11-28T16:12:29.671Z,38.47
2022-11-28T16:15:03.444Z,48.17
2022-11-28T16:17:35.196Z,51.80
2022-11-28T16:20:07.237Z,49.83
2022-11-28T16:22:38.113Z,46.97
2022-11-28T16:25:15.558Z,42.00
2022-11-28T16:27:48.756Z,39.93
2022-11-28T16:30:32.965Z,39.93
2022-11-28T16:33:01.873Z,38.63
2022-11-28T16:35:32.510Z,36.53
2022-11-28T16:38:15.278Z,37.10
2022-11-28T16:40:44.297Z,37.43
2022-11-28T16:43:22.601Z,35.30
2022-11-28T16:46:01.177Z,33.10
2022-11-28T16:48:33.860Z,28.47
2022-11-28T16:51:30.136Z,28.07
2022-11-28T16:53:59.954Z,29.67
2022-11-28T16:56:43.619Z,30.63
2022-11-28T16:59:14.376Z,31.47
2022-11-28T17:01:45.478Z,32.57
2022-11-28T17:04:22.180Z,26.50
2022-11-28T17:06:51.070Z,26.27
2022-11-28T17:09:19.899Z,14.73
2022-11-28T17:11:55.617Z,8.47
2022-11-28T17:14:24.253Z,6.50
2022-11-28T17:16:54.167Z,7.87
2022-11-28T17:19:22.541Z,12.47
2022-11-28T17:21:53.289Z,8.40
2022-11-28T17:24:23.389Z,4.93
2022-11-28T17:26:52.714Z,4.70
2022-11-28T17:29:21.811Z,4.23
2022-11-28T17:31:50.810Z,5.00
2022-11-28T17:34:22.584Z,4.77
2022-11-28T17:36:51.948Z,5.63
2022-11-28T17:39:21.568Z,6.40
2022-11-28T17:41:50.439Z,5.10
2022-11-28T17:44:21.049Z,4.03
2022-11-28T17:46:50.084Z,4.77
2022-11-28T17:49:20.525Z,4.50
2022-11-28T17:51:48.967Z,4.87
2022-11-28T17:54:19.164Z,4.50
2022-11-28T17:56:48.753Z,3.93
2022-11-28T17:59:18.598Z,6.03
2022-11-28T18:01:47.234Z,6.80
2022-11-28T18:04:15.723Z,6.13
2022-11-28T18:06:46.866Z,4.40
2022-11-28T18:09:15.820Z,4.30
2022-11-28T18:11:46.417Z,9.60
2022-11-28T18:14:19.229Z,10.80
2022-11-28T18:16:48.349Z,10.60
2022-11-28T18:19:16.731Z,6.87
2022-11-28T18:21:46.383Z,7.37
2022-11-28T18:24:14.807Z,6.77
2022-11-28T18:26:43.914Z,6.80
2022-11-28T18:29:12.237Z,8.27
2022-11-28T18:31:40.896Z,9.07
2022-11-28T18:34:09.601Z,9.90
2022-11-28T18:36:39.372Z,7.40
2022-11-28T18:39:12.305Z,9.17
2022-11-28T18:41:41.091Z,12.53
2022-11-28T18:44:09.488Z,13.57
2022-11-28T18:46:38.141Z,13.87
2022-11-28T18:49:06.481Z,14.90
2022-11-28T18:51:36.151Z,13.20
2022-11-28T18:54:06.373Z,14.30
2022-11-28T18:56:36.471Z,15.38
2022-11-28T18:59:05.007Z,16.83
2022-11-28T19:01:35.855Z,15.43
2022-11-28T19:04:06.374Z,15.33
2022-11-28T19:06:35.912Z,14.43
2022-11-28T19:09:07.332Z,13.80
2022-11-28T19:11:37.097Z,14.80
2022-11-28T19:14:06.822Z,14.70
2022-11-28T19:16:37.597Z,13.70
2022-11-28T19:19:07.016Z,13.40
2022-11-28T19:21:37.443Z,10.93
2022-11-28T19:24:08.089Z,8.50
2022-11-28T19:26:38.219Z,13.47
2022-11-28T19:29:07.679Z,16.03
2022-11-28T19:31:37.507Z,14.77
2022-11-28T19:34:07.926Z,14.07
2022-11-28T19:36:38.023Z,15.77
2022-11-28T19:39:07.731Z,17.10
2022-11-28T19:41:38.554Z,16.10
2022-11-28T19:44:06.981Z,15.07
2022-11-28T19:46:35.945Z,13.07
2022-11-28T19:49:04.843Z,12.37
2022-11-28T19:51:33.930Z,12.60
2022-11-28T19:54:03.929Z,12.40
2022-11-28T19:56:32.691Z,13.97
2022-11-28T19:59:02.473Z,15.37
2022-11-28T20:01:30.977Z,16.93
2022-11-28T20:04:00.226Z,16.83
2022-11-28T20:06:30.412Z,16.07
2022-11-28T20:09:02.301Z,14.00
2022-11-28T20:11:32.900Z,13.50
2022-11-28T20:14:03.709Z,14.13
2022-11-28T20:16:33.710Z,13.43
2022-11-28T20:19:02.920Z,13.87
2022-11-28T20:21:32.028Z,13.40
2022-11-28T20:24:04.766Z,14.23
2022-11-28T20:26:36.608Z,14.73
2022-11-28T20:29:07.215Z,13.70
2022-11-28T20:31:38.136Z,11.57
2022-11-28T20:34:07.303Z,12.40
2022-11-28T20:36:36.395Z,14.00
2022-11-28T20:39:05.979Z,17.10
2022-11-28T20:41:34.648Z,16.53
2022-11-28T20:44:03.141Z,16.10
2022-11-28T20:46:35.817Z,16.03
2022-11-28T20:49:06.693Z,18.43
2022-11-28T20:51:36.034Z,21.20
2022-11-28T20:54:05.993Z,22.30
2022-11-28T20:56:57.898Z,20.03
2022-11-28T20:59:24.974Z,22.10
2022-11-28T21:01:55.272Z,29.10
2022-11-28T21:04:23.649Z,31.77
2022-11-28T21:06:52.370Z,28.77
2022-11-28T21:09:20.824Z,21.57
2022-11-28T21:11:57.586Z,18.20
2022-11-28T21:14:27.873Z,18.70
2022-11-28T21:16:58.133Z,17.27
2022-11-28T21:19:26.706Z,18.50
2022-11-28T21:21:55.142Z,18.87
2022-11-28T21:24:23.657Z,18.87
2022-11-28T21:26:54.395Z,17.80
2022-11-28T21:29:24.183Z,17.93
2022-11-28T21:31:53.194Z,16.30
2022-11-28T21:34:23.369Z,21.57
2022-11-28T21:36:51.814Z,21.90
2022-11-28T21:39:22.129Z,21.40
2022-11-28T21:41:52.231Z,18.07
2022-11-28T21:44:20.716Z,16.43
2022-11-28T21:46:49.345Z,19.63
2022-11-28T21:49:17.600Z,29.60
2022-11-28T21:51:47.369Z,31.80
2022-11-28T21:54:15.820Z,26.57
2022-11-28T21:56:44.066Z,21.23
2022-11-28T21:59:12.552Z,24.30
2022-11-28T22:01:41.079Z,25.90
2022-11-28T22:04:10.594Z,21.97
2022-11-28T22:06:38.906Z,17.53
2022-11-28T22:09:09.939Z,16.63
2022-11-28T22:11:39.326Z,14.27
2022-11-28T22:14:07.884Z,13.77
2022-11-28T22:16:36.208Z,11.07
2022-11-28T22:19:04.495Z,12.23
2022-11-28T22:24:22.800Z,11.73
2022-11-28T22:26:51.426Z,10.17
2022-11-28T22:29:19.953Z,10.40
2022-11-28T22:31:48.317Z,9.90
2022-11-28T22:34:16.857Z,10.40
2022-11-28T22:36:45.167Z,10.60
2022-11-28T22:39:13.758Z,10.30
2022-11-28T22:41:44.181Z,11.50
2022-11-28T22:44:12.921Z,10.90
2022-11-28T22:46:41.664Z,12.20
2022-11-28T22:49:11.495Z,11.50
2022-11-28T22:51:40.591Z,10.93
2022-11-28T22:54:09.119Z,11.63
2022-11-28T22:56:37.611Z,14.00
2022-11-28T22:59:11.285Z,14.00
2022-11-28T23:01:40.358Z,11.80
2022-11-28T23:04:08.876Z,9.80
2022-11-28T23:06:37.437Z,10.23
2022-11-28T23:09:08.619Z,12.07
2022-11-28T23:11:39.736Z,12.40
2022-11-28T23:14:11.944Z,12.37
2022-11-28T23:16:41.721Z,11.60
2022-11-28T23:19:12.879Z,8.90
2022-11-28T23:21:44.565Z,7.50
2022-11-28T23:24:14.952Z,7.03
2022-11-28T23:26:43.260Z,6.80
2022-11-28T23:29:13.010Z,7.67
2022-11-28T23:31:43.282Z,7.33
2022-11-28T23:34:12.587Z,6.30
2022-11-28T23:36:43.022Z,6.60
2022-11-28T23:39:14.810Z,6.00
2022-11-28T23:41:43.722Z,5.93
2022-11-28T23:44:15.341Z,5.63
2022-11-28T23:46:44.220Z,5.33
2022-11-28T23:49:13.099Z,5.97
2022-11-28T23:51:42.359Z,5.70
2022-11-28T23:54:11.956Z,5.33
2022-11-28T23:56:41.650Z,4.77
2022-11-28T23:59:12.265Z,4.37
